Weather at Copenhagen Kastrup Airport

Public forecast

Using degrees Celsius for public forecast. Weather courtesy of forecast.io.

Current aviation weather report (METAR) for Copenhagen Kastrup Airport

Retrieved 2020/10/30 23:50 UTC (54 minutes ago):

EKCH 302350Z 16009KT 4000 BR OVC004 11/11 Q1017 NOSIG

Aviation forecast (TAF) for Copenhagen Kastrup Airport

Retrieved 2020-10-31 00:30 UTC (14 minutes ago):

TAF EKCH 302315Z 3100/3124 15008KT 8000 BKN005 TEMPO 3100/3118 0200 FG VV002 TEMPO 3118/3124 4000 BR BKN015